Diba, Oman

11:35 AM GST on March 31, 2015 (GMT +0400)
Ras Al Khaimah International | | Change Station
CLOSE
Current Station
Airport
Location: Ras Al Khaimah,
Elevation: 102 ft
Nearby Weather Stations

Elev 102 ft 25.61 °N, 55.94 °E | Updated 35 minutes ago

Clear
Clear
93 °F
Feels Like 93 °F
N
2
Wind Variable Wind from SSW

Today
High -- | Low -- °F
--% Chance of Precip.
Yesterday
High -- | Low -- °F
Precip. -- in
6:08 AM 6:30 PM
Waxing Gibbous, 85% visible
Pressure 29.83 in
Visibility -9999.0 miles
Clouds
Dew Point 52 °F
Humidity 24%
Rainfall 0.00 in
Snow Depth Not available.
UV Not available.
Pollen Not available.
Air Quality Not available.
Flu Activity Not available.
METAR OMRK 310700Z 20002KT CAVOK 34/11 Q1010 A2985

More Conditions Fewer Conditions

Pressure 29.83 in
Visibility -9999.0 miles
Clouds
Dew Point 52 °F
Humidity 24%
Rainfall 0.00 in
Snow Depth Not available.
UV Not available.
Pollen Not available.
Air Quality Not available.
Flu Activity Not available.
METAR OMRK 310700Z 20002KT CAVOK 34/11 Q1010 A2985

More Conditions Fewer Conditions

10-Day Weather Forecast

Almanac

Astronomy

Mar. 31, 2015 Rise Set
Actual Time
Civil Twilight
Nautical Twilight
Astronomical Twilight
Moon
Length of Visible Light
Length of Day
Tomorrow will be .
, % of the Moon is Illuminated

Today's Extremes

Country Highs Country Lows

Community

WunderPhotos

Upload Photos

1,809,729 photos uploaded!

WunderBlogs® & News

Nearby

Air Quality

  Air Quality AQ Index Pollutant
Not available.

Snow Depth

Station Depth Elevation

Earthquake Activity

City Distance Mag. Time & Date
Minimum magnitude displayed is 2.5.

Coastal Water Temperatures

Place Temperature

Stations

Nearby Weather Stations

Station Location Temp. Windchill Dew Point Humidity Wind Precip. Elev Updated Type